Nearby METAR Reports

 

KORH - Worcester, Massachusetts, USA
Distance from station: NW 4mi, 7km
Updated: Tue, 11-Dec-2018 11:54am EST
Clear
Clear
 Wind from WSW
Wind: WSW 9 mph , 15 km/h
Temperature: 30°F , -1°C
Wind Chill: 22°F , -6°C
Dew Point: 16°F , -9°C
Humidity: 55%
Barometer: 30.03 inHg , 1016.9 hPa
Clouds: Clear
Visibility: 10 miles , 16 km
2018/12/11 16:54 KORH 111654Z 25008KT 10SM CLR M01/M09 A3003 RMK AO2 SLP185 T10111089
KBOS - Boston, Massachusetts, USA
Distance from station: ENE 42mi, 68km
Updated: Tue, 11-Dec-2018 11:54am EST
Few Clouds
Few Clouds
 Wind from S
Wind: S 3 mph , 6 km/h
Temperature: 34°F , 1°C
Dew Point: 16°F , -9°C
Humidity: 48%
Barometer: 30.10 inHg , 1019.3 hPa
Clouds: Few Clouds
Visibility: 10 miles , 16 km
Cloud details: Few Clouds 5000 ft
Few Clouds 20000 ft
2018/12/11 16:54 KBOS 111654Z 18003KT 10SM FEW050 FEW200 01/M09 A3010 RMK AO2 SLP190 T00111089
 
KCQX - Chatham, Massachusetts, USA
Distance from station: SE 102mi, 164km
Updated: Tue, 11-Dec-2018 11:52am EST
Partly cloudy
Partly cloudy
 Wind from S
Wind: S 7 mph , 11 km/h
Temperature: 37°F , 3°C
Wind Chill: 32°F , 0°C
Dew Point: 25°F , -4°C
Humidity: 60%
Barometer: 30.10 inHg , 1019.3 hPa
Clouds: Partly cloudy
Visibility: 10 miles , 16 km
Cloud details: Partly cloudy 3400 ft
2018/12/11 16:52 KCQX 111652Z AUTO 18006KT 10SM SCT034 03/M04 A3010 RMK AO2 SLP196 T00331044
KMVY - Marthas Vineyard, Massachusetts, USA
Distance from station: SE 84mi, 135km
Updated: Tue, 11-Dec-2018 11:53am EST
Clear
Clear
 Wind from SSE
Wind: SSE 8 mph , 13 km/h
Temperature: 37°F , 3°C
Wind Chill: 31°F , -1°C
Dew Point: 25°F , -4°C
Humidity: 60%
Barometer: 30.09 inHg , 1019 hPa
Clouds: Clear
Visibility: 10 miles , 16 km
2018/12/11 16:53 KMVY 111653Z 15007KT 10SM CLR 03/M04 A3009 RMK AO2 SLP189 T00331044
 
KPVC - Provincetown, Massachusetts, USA
Distance from station: NNW 85mi, 136km
Updated: Tue, 11-Dec-2018 11:56am EST
Partly cloudy
Partly cloudy
 Wind from SSW
Wind: SSW 10 mph , 17 km/h
Temperature: 37°F , 3°C
Wind Chill: 30°F , -1°C
Dew Point: 27°F , -3°C
Humidity: 65%
Barometer: 30.10 inHg , 1019.3 hPa
Clouds: Partly cloudy
Visibility: 10 miles , 16 km
Cloud details: Partly cloudy 2700 ft
2018/12/11 16:56 KPVC 111656Z AUTO 20009KT 10SM SCT027 03/M03 A3010 RMK AO2 SLP192 T00281033
KAQW - Savoy, Massachusetts, USA
Distance from station: NNW 66mi, 106km
Updated: Tue, 11-Dec-2018 11:52am EST
Clear
Clear
 Wind from calm
Wind: Calm
Temperature: 27°F , -3°C
Dew Point: 18°F , -8°C
Humidity: 69%
Barometer: 30.05 inHg , 1017.6 hPa
Clouds: Clear
Visibility: 10 miles , 16 km
2018/12/11 16:52 KAQW 111652Z AUTO 00000KT 10SM CLR M03/M08 A3005 RMK AO2 SLP188 T10281078
 
KIZG - Fryeburg, Maine, USA
Distance from station: NNE 133mi, 214km
Updated: Tue, 11-Dec-2018 11:54am EST
Clear
Clear
 Wind from calm
Wind: Calm
Temperature: 21°F , -6°C
Dew Point: 9°F , -13°C
Humidity: 58%
Barometer: 30.05 inHg , 1017.6 hPa
Clouds: Clear
Visibility: 10 miles , 16 km
2018/12/11 16:54 KIZG 111654Z AUTO 00000KT 10SM CLR M06/M13 A3005 RMK AO2 SLP187 T10611133
KMWN - Mt Washington, New Hampshire, USA
Distance from station: NNE 146mi, 234km
Updated: Tue, 11-Dec-2018 11:47am EST

 Wind from WSW
Wind: WSW 37 mph , 59 km/h
Visibility: 100 miles , 160 km
2018/12/11 16:47 KMWN 111647Z 25032KT 100SM FEW/// FEW140 FEW160 FEW180 M12/M23 RMK TPS LWR FEW030 VIS LWR SW-NW
 
KBML - Berlin, New Hampshire, USA
Distance from station: NNE 160mi, 257km
Updated: Tue, 11-Dec-2018 11:52am EST
Clear
Clear
 Wind from calm
Wind: Calm
Temperature: 16°F , -9°C
Dew Point: 7°F , -14°C
Humidity: 67%
Barometer: 29.99 inHg , 1015.6 hPa
Clouds: Clear
Visibility: 10 miles , 16 km
2018/12/11 16:52 KBML 111652Z AUTO 00000KT 10SM CLR M09/M14 A2999 RMK AO2 SLP187 T10941144